Time;durP1;ratioP1;P1;durP2;ratioP2;P2;SDS_P1;SDS_P2;PMS_P1;PMS_P2;Temp;Humidity;BMP_temperature;BMP_pressure;BME280_temperature;BME280_humidity;BME280_pressure;Samples;Min_cycle;Max_cycle;Signal;HPM_P1;HPM_P2
2020/12/15 00:00:42;;;;;;;3.65;3.45;;;3.10;99.90;;;;;;5009917;28;20226;-75
2020/12/15 00:03:09;;;;;;;3.33;3.13;;;3.10;99.90;;;;;;5011847;28;20220;-75
2020/12/15 00:05:36;;;;;;;3.90;3.63;;;3.10;99.90;;;;;;5009059;28;20797;-75
2020/12/15 00:08:03;;;;;;;4.07;3.78;;;3.10;99.90;;;;;;5006166;28;20225;-75
2020/12/15 00:10:29;;;;;;;4.18;3.90;;;3.10;99.90;;;;;;5012286;28;20222;-74
2020/12/15 00:12:56;;;;;;;4.15;3.85;;;3.10;99.90;;;;;;5011311;28;20211;-75
2020/12/15 00:15:22;;;;;;;4.30;4.00;;;3.00;99.90;;;;;;5011478;28;20246;-75
2020/12/15 00:17:49;;;;;;;4.97;4.57;;;3.00;99.90;;;;;;5009393;28;20224;-74
2020/12/15 00:20:15;;;;;;;4.25;3.83;;;3.00;99.90;;;;;;5008529;28;20229;-74
2020/12/15 00:22:43;;;;;;;4.40;4.00;;;2.90;99.90;;;;;;5006195;28;20278;-75
2020/12/15 00:25:09;;;;;;;4.40;4.10;;;2.90;99.90;;;;;;5017007;28;20227;-75
2020/12/15 00:27:36;;;;;;;4.38;4.07;;;2.90;99.90;;;;;;5009985;28;20232;-75
2020/12/15 00:30:03;;;;;;;4.40;4.10;;;2.90;99.90;;;;;;5006890;28;20293;-75
2020/12/15 00:32:30;;;;;;;4.57;4.28;;;2.90;99.90;;;;;;5004966;28;20227;-74
2020/12/15 00:34:56;;;;;;;4.32;4.03;;;2.90;99.90;;;;;;5012274;28;20270;-75
2020/12/15 00:37:23;;;;;;;4.22;3.92;;;2.90;99.90;;;;;;5006988;28;20228;-74
2020/12/15 00:39:50;;;;;;;3.75;3.53;;;2.90;99.90;;;;;;5007403;28;20227;-75
2020/12/15 00:42:17;;;;;;;3.58;3.28;;;2.90;99.90;;;;;;5012488;28;20215;-75
2020/12/15 00:44:44;;;;;;;3.80;3.60;;;2.80;99.90;;;;;;5012436;28;20662;-73
2020/12/15 00:47:10;;;;;;;4.45;4.10;;;2.80;99.90;;;;;;5004159;28;20503;-75
2020/12/15 00:49:37;;;;;;;3.92;3.63;;;2.80;99.90;;;;;;5008396;28;20215;-75
2020/12/15 00:52:03;;;;;;;4.07;3.78;;;2.80;99.90;;;;;;5008326;28;20204;-74
2020/12/15 00:54:30;;;;;;;4.32;4.03;;;2.80;99.90;;;;;;5006917;28;20225;-74
2020/12/15 00:56:57;;;;;;;3.83;3.58;;;2.80;99.90;;;;;;5006506;28;20747;-74
2020/12/15 00:59:24;;;;;;;3.78;3.58;;;2.80;99.90;;;;;;5008180;28;20223;-75
2020/12/15 01:01:50;;;;;;;3.83;3.53;;;2.80;99.90;;;;;;5010909;28;20242;-74
2020/12/15 01:04:17;;;;;;;4.30;4.00;;;2.70;99.90;;;;;;5007562;28;20644;-74
2020/12/15 01:06:48;;;;;;;3.75;3.55;;;2.70;99.90;;;;;;5009157;28;20220;-74
2020/12/15 01:09:15;;;;;;;4.10;3.80;;;2.70;99.90;;;;;;5008158;28;20224;-74
2020/12/15 01:11:41;;;;;;;4.35;4.05;;;2.70;99.90;;;;;;5009769;28;20200;-74
2020/12/15 01:14:09;;;;;;;3.88;3.58;;;2.70;99.90;;;;;;5011809;28;20227;-74
2020/12/15 01:16:35;;;;;;;3.70;3.50;;;2.70;99.90;;;;;;5010529;28;21017;-75
2020/12/15 01:19:02;;;;;;;3.90;3.63;;;2.70;99.90;;;;;;5004877;28;20671;-75
2020/12/15 01:21:29;;;;;;;3.65;3.45;;;2.70;99.90;;;;;;5008352;28;20725;-74
2020/12/15 01:23:56;;;;;;;3.70;3.40;;;2.60;99.90;;;;;;5009839;28;20611;-75
2020/12/15 01:26:23;;;;;;;3.47;3.28;;;2.60;99.90;;;;;;5011419;28;20258;-74
2020/12/15 01:28:50;;;;;;;3.80;3.58;;;2.70;99.90;;;;;;5013849;28;20200;-74
2020/12/15 01:31:23;;;;;;;4.03;3.80;;;2.70;99.90;;;;;;5006896;28;20533;-74
2020/12/15 01:33:50;;;;;;;4.10;3.90;;;2.60;99.90;;;;;;5007384;28;20200;-73
2020/12/15 01:36:17;;;;;;;3.92;3.72;;;2.60;99.90;;;;;;5010175;28;20207;-73
2020/12/15 01:38:43;;;;;;;3.55;3.35;;;2.60;99.90;;;;;;5008961;28;20208;-75
2020/12/15 01:41:11;;;;;;;3.50;3.30;;;2.60;99.90;;;;;;5007883;28;20222;-74
2020/12/15 01:43:38;;;;;;;3.50;3.30;;;2.60;99.90;;;;;;5008573;28;20267;-74
2020/12/15 01:46:05;;;;;;;4.00;3.80;;;2.60;99.90;;;;;;5012968;28;20224;-74
2020/12/15 01:48:32;;;;;;;3.75;3.55;;;2.60;99.90;;;;;;5015155;28;20234;-74
2020/12/15 01:50:59;;;;;;;3.75;3.45;;;2.60;99.90;;;;;;5018439;28;20231;-75
2020/12/15 01:53:25;;;;;;;3.78;3.58;;;2.60;99.90;;;;;;5018392;28;20208;-75
2020/12/15 01:55:52;;;;;;;3.83;3.63;;;2.60;99.90;;;;;;5016151;28;20220;-74
2020/12/15 01:58:18;;;;;;;4.07;3.78;;;2.60;99.90;;;;;;5011899;28;20220;-74
2020/12/15 02:00:45;;;;;;;4.25;3.85;;;2.60;99.90;;;;;;5009227;28;20228;-75
2020/12/15 02:03:11;;;;;;;4.00;3.70;;;2.60;99.90;;;;;;5007003;28;20216;-75
2020/12/15 02:05:39;;;;;;;4.47;4.07;;;2.60;99.90;;;;;;5007442;28;20729;-75
2020/12/15 02:08:06;;;;;;;3.85;3.55;;;2.50;99.90;;;;;;5004369;28;20220;-75
2020/12/15 02:10:33;;;;;;;3.50;3.30;;;2.50;99.90;;;;;;5007230;28;20644;-75
2020/12/15 02:12:59;;;;;;;3.83;3.63;;;2.50;99.90;;;;;;4997037;28;20200;-75
2020/12/15 02:15:26;;;;;;;4.25;4.00;;;2.50;99.90;;;;;;5005810;28;20227;-75
2020/12/15 02:17:52;;;;;;;3.80;3.40;;;2.50;99.90;;;;;;5005533;28;20224;-75
2020/12/15 02:20:19;;;;;;;4.35;4.05;;;2.50;99.90;;;;;;5004918;28;20603;-75
2020/12/15 02:22:46;;;;;;;3.85;3.65;;;2.50;99.90;;;;;;5002588;28;20223;-74
2020/12/15 02:25:13;;;;;;;4.07;3.78;;;2.60;99.90;;;;;;4999432;28;20618;-75
2020/12/15 02:27:41;;;;;;;3.95;3.65;;;2.60;99.90;;;;;;5002167;28;21182;-74
2020/12/15 02:30:08;;;;;;;3.83;3.63;;;2.60;99.90;;;;;;5006970;28;20216;-74
2020/12/15 02:32:35;;;;;;;3.90;3.60;;;2.60;99.90;;;;;;5004731;28;20228;-75
2020/12/15 02:35:03;;;;;;;4.10;3.80;;;2.70;99.90;;;;;;5005543;28;20232;-74
2020/12/15 02:37:30;;;;;;;3.90;3.70;;;2.70;99.90;;;;;;5000422;28;20790;-75
2020/12/15 02:40:01;;;;;;;3.97;3.33;;;2.70;99.90;;;;;;5004827;28;20283;-74
2020/12/15 02:42:29;;;;;;;4.00;3.70;;;2.60;99.90;;;;;;5008170;28;20216;-74
2020/12/15 02:44:56;;;;;;;3.83;3.63;;;2.60;99.90;;;;;;5003223;28;20275;-75
2020/12/15 02:47:23;;;;;;;3.55;3.25;;;2.60;99.90;;;;;;4995527;28;20221;-74
2020/12/15 02:49:50;;;;;;;3.90;3.65;;;2.60;99.90;;;;;;5002656;28;20293;-75
2020/12/15 02:52:16;;;;;;;4.15;3.85;;;2.60;99.90;;;;;;5006357;28;20642;-74
2020/12/15 02:54:43;;;;;;;3.63;3.42;;;2.60;99.90;;;;;;4998045;28;20216;-75
2020/12/15 02:57:10;;;;;;;3.47;3.28;;;2.60;99.90;;;;;;5003425;28;20208;-75
2020/12/15 02:59:37;;;;;;;3.85;3.65;;;2.60;99.90;;;;;;4999849;28;20228;-75
2020/12/15 03:02:03;;;;;;;4.03;3.83;;;2.70;99.90;;;;;;5004806;28;20271;-74
2020/12/15 03:04:30;;;;;;;4.50;4.20;;;2.70;99.90;;;;;;5006626;28;20216;-74
2020/12/15 03:06:56;;;;;;;3.97;3.78;;;2.70;99.90;;;;;;5002545;28;20719;-74
2020/12/15 03:09:23;;;;;;;3.70;3.50;;;2.70;99.90;;;;;;5004088;28;20224;-74
2020/12/15 03:11:57;;;;;;;4.32;4.05;;;2.70;99.90;;;;;;5002274;28;20197;-74
2020/12/15 03:14:25;;;;;;;3.95;3.65;;;2.70;99.90;;;;;;5009686;28;20298;-75
2020/12/15 03:16:51;;;;;;;3.80;3.60;;;2.70;99.90;;;;;;5003735;28;20228;-75
2020/12/15 03:19:18;;;;;;;4.10;3.90;;;2.70;99.90;;;;;;5008200;28;20207;-74
2020/12/15 03:21:44;;;;;;;3.90;3.70;;;2.70;99.90;;;;;;5004062;28;20374;-74
2020/12/15 03:24:11;;;;;;;3.65;3.45;;;2.70;99.90;;;;;;5002115;28;20189;-75
2020/12/15 03:26:37;;;;;;;4.00;3.80;;;2.70;99.90;;;;;;5006480;28;20229;-75
2020/12/15 03:29:04;;;;;;;3.45;3.25;;;2.70;99.90;;;;;;5003066;28;20548;-74
2020/12/15 03:31:31;;;;;;;4.10;3.80;;;2.70;99.90;;;;;;5004904;28;20790;-75
2020/12/15 03:33:58;;;;;;;3.92;3.72;;;2.70;99.90;;;;;;5011000;28;20195;-74
2020/12/15 03:36:24;;;;;;;4.05;3.85;;;2.80;99.90;;;;;;5006411;28;20212;-74
2020/12/15 03:38:51;;;;;;;3.67;3.47;;;2.80;99.90;;;;;;5008826;28;20223;-74
2020/12/15 03:41:17;;;;;;;3.75;3.55;;;2.80;99.90;;;;;;5002105;28;20710;-75
2020/12/15 03:43:44;;;;;;;3.80;3.60;;;2.90;99.90;;;;;;5003050;28;20708;-74
2020/12/15 03:46:10;;;;;;;3.58;3.38;;;2.90;99.90;;;;;;5003537;28;20220;-74
2020/12/15 03:48:38;;;;;;;4.28;3.97;;;2.90;99.90;;;;;;5004244;28;20216;-74
2020/12/15 03:51:04;;;;;;;4.10;3.90;;;2.90;99.90;;;;;;5001389;28;20570;-74
2020/12/15 03:53:31;;;;;;;4.43;4.13;;;2.90;99.90;;;;;;5002160;28;20223;-74
2020/12/15 03:55:57;;;;;;;4.40;4.10;;;2.90;99.90;;;;;;5009615;28;20221;-74
2020/12/15 03:58:24;;;;;;;3.40;3.20;;;2.90;99.90;;;;;;5005151;28;20212;-74
2020/12/15 04:00:50;;;;;;;4.47;4.18;;;2.90;99.90;;;;;;5006913;28;20227;-74
2020/12/15 04:03:17;;;;;;;4.40;4.10;;;2.80;99.90;;;;;;5002040;28;20244;-75
2020/12/15 04:05:44;;;;;;;4.30;4.00;;;2.70;99.90;;;;;;5005756;28;20303;-74
2020/12/15 04:08:11;;;;;;;4.60;4.30;;;2.70;99.90;;;;;;5007780;28;20220;-74
2020/12/15 04:10:37;;;;;;;4.07;3.80;;;2.80;99.90;;;;;;5011450;28;20229;-75
2020/12/15 04:13:04;;;;;;;4.13;3.83;;;2.80;99.90;;;;;;5006066;28;20188;-74
2020/12/15 04:15:30;;;;;;;3.58;3.38;;;2.80;99.90;;;;;;5003082;28;20212;-74
2020/12/15 04:17:57;;;;;;;4.75;4.35;;;2.90;99.90;;;;;;5003496;28;20235;-74
2020/12/15 04:20:23;;;;;;;4.13;3.90;;;2.90;99.90;;;;;;5007181;28;20243;-74
2020/12/15 04:22:51;;;;;;;4.28;3.97;;;2.80;99.90;;;;;;5007029;28;20216;-74
2020/12/15 04:25:17;;;;;;;4.53;4.13;;;2.80;99.90;;;;;;4999652;28;20231;-73
2020/12/15 04:27:44;;;;;;;4.38;4.07;;;2.80;99.90;;;;;;5000342;28;20248;-75
2020/12/15 04:30:10;;;;;;;4.18;3.88;;;2.70;99.90;;;;;;5006810;28;20254;-74
2020/12/15 04:32:37;;;;;;;5.05;4.55;;;2.70;99.90;;;;;;5004725;28;20204;-74
2020/12/15 04:35:04;;;;;;;4.72;4.30;;;2.80;99.90;;;;;;5002030;28;20228;-74
2020/12/15 04:37:30;;;;;;;4.60;4.20;;;2.70;99.90;;;;;;5003711;28;20236;-74
2020/12/15 04:39:58;;;;;;;4.60;4.30;;;2.70;99.90;;;;;;5008918;28;20583;-74
2020/12/15 04:42:25;;;;;;;3.90;3.70;;;2.60;99.90;;;;;;5012507;28;20224;-74
2020/12/15 04:44:52;;;;;;;3.72;3.53;;;2.60;99.90;;;;;;5007798;28;20220;-74
2020/12/15 04:47:20;;;;;;;4.30;4.00;;;2.60;99.90;;;;;;5009717;28;20231;-74
2020/12/15 04:50:00;;;;;;;4.47;4.18;;;2.70;99.90;;;;;;5017647;28;20255;-74
2020/12/15 04:52:49;;;;;;;3.72;3.53;;;2.70;99.90;;;;;;5002370;28;20211;-74
2020/12/15 04:55:17;;;;;;;3.83;3.53;;;2.70;99.90;;;;;;5007804;28;20225;-74
2020/12/15 04:57:46;;;;;;;4.28;3.95;;;2.70;99.90;;;;;;5011131;28;20243;-74
2020/12/15 05:00:14;;;;;;;4.40;4.10;;;2.70;99.90;;;;;;4998654;28;20224;-74
2020/12/15 05:02:41;;;;;;;4.05;3.85;;;2.70;99.90;;;;;;5003804;28;20216;-74
2020/12/15 05:05:09;;;;;;;4.40;4.10;;;2.80;99.90;;;;;;5004912;28;20216;-74
2020/12/15 05:07:40;;;;;;;4.20;3.90;;;2.90;99.90;;;;;;5004607;28;20224;-75
2020/12/15 05:10:06;;;;;;;3.90;3.70;;;2.90;99.90;;;;;;4997619;28;20707;-74
2020/12/15 05:12:34;;;;;;;3.53;3.33;;;3.00;99.90;;;;;;5007945;28;20193;-74
2020/12/15 05:15:01;;;;;;;4.15;3.88;;;3.00;99.90;;;;;;5004936;28;20227;-75
2020/12/15 05:17:32;;;;;;;4.28;3.97;;;3.00;99.90;;;;;;5006088;28;20299;-74
2020/12/15 05:19:59;;;;;;;3.67;3.47;;;3.00;99.90;;;;;;5004399;28;20224;-74
2020/12/15 05:22:25;;;;;;;4.10;3.70;;;3.00;99.90;;;;;;4997954;28;20252;-74
2020/12/15 05:24:52;;;;;;;3.78;3.58;;;3.00;99.90;;;;;;5004992;28;20228;-74
2020/12/15 05:27:29;;;;;;;3.80;3.60;;;3.00;99.90;;;;;;5002045;28;20267;-74
2020/12/15 05:30:06;;;;;;;3.63;3.42;;;3.00;99.90;;;;;;5002005;28;20220;-75
2020/12/15 05:32:33;;;;;;;3.95;3.65;;;3.10;99.90;;;;;;5001636;28;20567;-74
2020/12/15 05:35:09;;;;;;;3.90;3.65;;;3.10;99.90;;;;;;5001012;28;20484;-75
2020/12/15 05:37:35;;;;;;;3.65;3.45;;;3.10;99.90;;;;;;4999698;28;20232;-75
2020/12/15 05:40:03;;;;;;;3.90;3.70;;;3.10;99.90;;;;;;5002859;28;20275;-75
2020/12/15 05:42:32;;;;;;;5.13;4.00;;;3.10;99.90;;;;;;5001021;28;20228;-74
2020/12/15 05:45:00;;;;;;;3.97;3.70;;;3.10;99.90;;;;;;5006019;28;20234;-75
2020/12/15 05:47:27;;;;;;;3.60;3.40;;;3.00;99.90;;;;;;5006035;28;20278;-75
2020/12/15 05:49:58;;;;;;;3.58;3.38;;;3.10;99.90;;;;;;5008761;28;20220;-74
2020/12/15 05:52:28;;;;;;;3.95;3.75;;;3.10;99.90;;;;;;5009806;28;20192;-75
2020/12/15 05:55:05;;;;;;;4.22;3.92;;;3.10;99.90;;;;;;5002764;28;20224;-74
2020/12/15 05:57:32;;;;;;;4.28;3.97;;;3.10;99.90;;;;;;5007869;28;20583;-74
2020/12/15 06:00:09;;;;;;;4.90;4.50;;;3.00;99.90;;;;;;5008898;28;20225;-75
2020/12/15 06:02:36;;;;;;;5.35;4.95;;;3.00;99.90;;;;;;5004469;28;20280;-74
2020/12/15 06:05:04;;;;;;;5.75;5.30;;;3.00;99.90;;;;;;5003475;28;20674;-75
2020/12/15 06:07:33;;;;;;;6.20;5.70;;;3.00;99.90;;;;;;4995277;28;20235;-74
2020/12/15 06:10:00;;;;;;;6.40;5.80;;;3.00;99.90;;;;;;5003136;28;20304;-75
2020/12/15 06:12:26;;;;;;;5.75;5.18;;;2.90;99.90;;;;;;5005289;28;20628;-75
2020/12/15 06:14:53;;;;;;;5.45;5.05;;;2.90;99.90;;;;;;5007072;28;20230;-74
2020/12/15 06:17:21;;;;;;;5.78;5.28;;;2.90;99.90;;;;;;5000721;28;20220;-74
2020/12/15 06:19:52;;;;;;;5.53;5.07;;;2.90;99.90;;;;;;5008964;28;20208;-74
2020/12/15 06:22:21;;;;;;;5.78;5.28;;;2.90;99.90;;;;;;5008180;28;20624;-75
2020/12/15 06:24:58;;;;;;;5.20;4.70;;;2.90;99.90;;;;;;5004226;28;20243;-74
2020/12/15 06:27:32;;;;;;;5.82;5.15;;;2.90;99.90;;;;;;5005704;28;20230;-75
2020/12/15 06:29:59;;;;;;;5.30;4.80;;;2.90;99.90;;;;;;5002235;28;20238;-74
2020/12/15 06:32:26;;;;;;;5.13;4.72;;;2.90;99.90;;;;;;5003965;28;20208;-75
2020/12/15 06:34:54;;;;;;;5.47;5.07;;;2.90;99.90;;;;;;5020294;28;20663;-73
2020/12/15 06:37:23;;;;;;;5.30;4.90;;;3.00;99.90;;;;;;5011727;28;20231;-73
2020/12/15 06:39:57;;;;;;;4.78;4.47;;;3.00;99.90;;;;;;5008714;28;20211;-74
2020/12/15 06:42:24;;;;;;;5.45;5.05;;;3.00;99.90;;;;;;5003907;28;20197;-75
2020/12/15 06:45:04;;;;;;;5.57;5.13;;;3.00;99.90;;;;;;5007836;28;20205;-75
2020/12/15 06:47:31;;;;;;;4.90;4.50;;;3.00;99.90;;;;;;5003782;28;20252;-75
2020/12/15 06:50:09;;;;;;;5.43;4.93;;;3.00;99.90;;;;;;5005671;28;20220;-74
2020/12/15 06:52:36;;;;;;;4.90;4.43;;;3.00;99.90;;;;;;5003599;28;20287;-75
2020/12/15 06:55:03;;;;;;;4.80;4.43;;;3.00;99.90;;;;;;5001959;28;20785;-75
2020/12/15 06:57:34;;;;;;;4.53;4.13;;;3.00;99.90;;;;;;5004510;28;20598;-74
2020/12/15 07:00:04;;;;;;;4.47;4.18;;;2.90;99.90;;;;;;5005872;28;20235;-74
2020/12/15 07:02:31;;;;;;;4.22;3.92;;;3.00;99.90;;;;;;4998790;28;20228;-74
2020/12/15 07:05:19;;;;;;;4.85;4.50;;;2.90;99.90;;;;;;5004117;28;20655;-74
2020/12/15 07:07:50;;;;;;;4.55;4.25;;;3.00;99.90;;;;;;5004805;28;20220;-75
2020/12/15 07:10:17;;;;;;;5.05;4.65;;;3.00;99.90;;;;;;5011223;28;20760;-74
2020/12/15 07:12:47;;;;;;;4.70;4.40;;;3.00;99.90;;;;;;5003642;28;20197;-74
2020/12/15 07:15:14;;;;;;;4.60;4.20;;;3.00;99.90;;;;;;4999948;28;20282;-74
2020/12/15 07:17:48;;;;;;;4.60;4.30;;;2.90;99.90;;;;;;5004656;28;20216;-75
2020/12/15 07:20:17;;;;;;;4.88;4.55;;;2.90;99.90;;;;;;5012556;28;20273;-74
2020/12/15 07:22:43;;;;;;;5.35;4.95;;;3.00;99.90;;;;;;5006435;28;20227;-74
2020/12/15 07:25:11;;;;;;;5.05;4.65;;;3.00;99.90;;;;;;5001702;28;20222;-74
2020/12/15 07:27:38;;;;;;;4.60;4.30;;;2.90;99.90;;;;;;5018025;28;20221;-74
2020/12/15 07:30:08;;;;;;;4.57;4.20;;;3.00;99.90;;;;;;5007537;28;20255;-75
2020/12/15 07:32:36;;;;;;;4.55;4.22;;;3.00;99.90;;;;;;5005816;28;20276;-74
2020/12/15 07:35:05;;;;;;;4.60;4.30;;;3.00;99.90;;;;;;5000163;28;20892;-74
2020/12/15 07:37:35;;;;;;;6.05;4.78;;;3.00;99.90;;;;;;5007460;28;20223;-75
2020/12/15 07:40:04;;;;;;;4.97;4.50;;;3.10;99.90;;;;;;5007418;28;20232;-74
2020/12/15 07:42:31;;;;;;;5.07;4.65;;;3.30;99.90;;;;;;5013781;28;20266;-74
2020/12/15 07:44:59;;;;;;;5.30;4.82;;;3.30;99.90;;;;;;5009661;28;20270;-75
2020/12/15 07:47:27;;;;;;;5.18;4.85;;;3.30;99.90;;;;;;5005917;28;20742;-74
2020/12/15 07:49:57;;;;;;;5.68;5.18;;;3.30;99.90;;;;;;5007800;28;20200;-73
2020/12/15 07:52:35;;;;;;;5.72;5.22;;;3.30;99.90;;;;;;5005452;28;20400;-74
2020/12/15 07:55:04;;;;;;;4.90;4.50;;;3.20;99.90;;;;;;5004941;28;20207;-74
2020/12/15 07:57:33;;;;;;;5.95;5.43;;;3.10;99.90;;;;;;4993790;28;20258;-73
2020/12/15 08:00:04;;;;;;;6.85;6.32;;;3.00;99.90;;;;;;4996944;28;20292;-75
2020/12/15 08:02:31;;;;;;;7.22;6.60;;;2.80;99.90;;;;;;5001737;28;20583;-74
2020/12/15 08:05:05;;;;;;;8.20;7.43;;;2.70;99.90;;;;;;5004769;28;20203;-75
2020/12/15 08:07:37;;;;;;;7.85;6.93;;;2.60;99.90;;;;;;5002113;28;20238;-75
2020/12/15 08:10:03;;;;;;;6.70;6.10;;;2.60;99.90;;;;;;5001690;28;20211;-74
2020/12/15 08:12:31;;;;;;;7.40;6.72;;;2.60;99.90;;;;;;4995531;28;20200;-75
2020/12/15 08:14:58;;;;;;;6.30;5.70;;;2.70;99.90;;;;;;5003468;28;20204;-75
2020/12/15 08:17:25;;;;;;;6.60;6.00;;;2.80;99.90;;;;;;5003513;28;20277;-76
2020/12/15 08:19:52;;;;;;;5.85;5.35;;;2.80;99.90;;;;;;5018015;28;20204;-75
2020/12/15 08:22:19;;;;;;;5.10;4.60;;;2.80;99.90;;;;;;5002328;28;20600;-72
2020/12/15 08:24:50;;;;;;;6.32;4.95;;;3.00;99.90;;;;;;4996366;28;20399;-74
2020/12/15 08:27:17;;;;;;;6.25;5.75;;;3.10;99.90;;;;;;4997813;28;20597;-74
2020/12/15 08:29:44;;;;;;;5.53;5.07;;;3.20;99.90;;;;;;5000255;28;20215;-75
2020/12/15 08:32:10;;;;;;;6.72;6.13;;;3.20;99.90;;;;;;4998563;28;20716;-73
2020/12/15 08:34:37;;;;;;;6.10;5.32;;;3.30;99.90;;;;;;5002466;28;20603;-75
2020/12/15 08:37:04;;;;;;;8.75;5.70;;;3.40;99.90;;;;;;4996191;28;20714;-75
2020/12/15 08:39:32;;;;;;;6.10;5.60;;;3.40;99.90;;;;;;5005966;28;20208;-76
2020/12/15 08:42:00;;;;;;;6.72;6.13;;;3.50;99.90;;;;;;5001805;28;20443;-75
2020/12/15 08:44:27;;;;;;;6.47;5.88;;;3.60;99.90;;;;;;5001332;28;20224;-74
2020/12/15 08:46:55;;;;;;;6.93;6.22;;;3.80;99.90;;;;;;4993347;28;20228;-75
2020/12/15 08:49:23;;;;;;;6.38;5.88;;;3.90;99.90;;;;;;4999119;28;20192;-75
2020/12/15 08:51:51;;;;;;;6.00;5.60;;;4.00;99.90;;;;;;5000834;28;20228;-76
2020/12/15 08:54:19;;;;;;;6.03;5.53;;;4.30;99.90;;;;;;5003986;28;20204;-75
2020/12/15 08:56:46;;;;;;;6.60;5.97;;;4.50;99.90;;;;;;4996555;28;20235;-75
2020/12/15 08:59:15;;;;;;;6.35;5.85;;;4.70;99.90;;;;;;5001716;28;20212;-75
2020/12/15 09:01:43;;;;;;;7.13;6.53;;;5.00;99.90;;;;;;4999807;28;20567;-75
2020/12/15 09:04:10;;;;;;;6.55;6.05;;;5.10;99.90;;;;;;5001792;28;20209;-74
2020/12/15 09:06:38;;;;;;;6.18;5.68;;;5.20;99.90;;;;;;4994557;28;20243;-71
2020/12/15 09:09:05;;;;;;;5.65;5.15;;;5.30;99.90;;;;;;4998446;28;20598;-75
2020/12/15 09:11:32;;;;;;;6.40;5.90;;;5.50;99.90;;;;;;5011798;28;20746;-73
2020/12/15 09:14:00;;;;;;;6.50;5.85;;;5.50;99.90;;;;;;4995601;28;20259;-74
2020/12/15 09:16:32;;;;;;;5.85;5.35;;;5.50;99.90;;;;;;5001407;28;20452;-73
2020/12/15 09:19:09;;;;;;;6.57;5.93;;;5.90;99.90;;;;;;4993103;28;20292;-74
2020/12/15 09:21:36;;;;;;;6.30;5.72;;;7.00;99.90;;;;;;4997329;28;20458;-73
2020/12/15 09:24:02;;;;;;;6.53;5.93;;;8.80;99.90;;;;;;4998152;28;20213;-72
2020/12/15 09:26:29;;;;;;;6.78;6.18;;;11.30;99.90;;;;;;4997873;28;20270;-73
2020/12/15 09:29:07;;;;;;;6.57;5.95;;;12.50;99.90;;;;;;4990038;28;20200;-72
2020/12/15 09:31:34;;;;;;;5.90;5.40;;;11.50;99.90;;;;;;4997231;28;20219;-74
2020/12/15 09:34:01;;;;;;;5.43;4.93;;;10.20;99.90;;;;;;4996135;28;20197;-72
2020/12/15 09:36:28;;;;;;;6.40;5.75;;;9.20;99.90;;;;;;5001057;28;20719;-74
2020/12/15 09:38:54;;;;;;;6.18;5.65;;;8.50;99.90;;;;;;4997857;28;20635;-72
2020/12/15 09:41:21;;;;;;;6.07;5.47;;;7.80;99.90;;;;;;4997130;28;20216;-74
2020/12/15 09:43:48;;;;;;;7.15;6.55;;;7.40;99.90;;;;;;4998734;28;20731;-73
2020/12/15 09:46:14;;;;;;;6.90;6.20;;;7.10;99.90;;;;;;5000721;28;20250;-74
2020/12/15 09:48:42;;;;;;;6.95;6.35;;;7.10;99.90;;;;;;4996805;28;20217;-74
2020/12/15 09:51:11;;;;;;;7.20;6.25;;;6.90;99.90;;;;;;4994284;28;20231;-74
2020/12/15 09:53:38;;;;;;;6.85;6.25;;;6.90;99.90;;;;;;4998388;28;20570;-74
2020/12/15 09:56:04;;;;;;;6.18;5.68;;;6.90;99.90;;;;;;4994978;28;20223;-72
2020/12/15 09:58:31;;;;;;;6.72;6.07;;;7.00;99.90;;;;;;5001600;28;20721;-73
2020/12/15 10:00:57;;;;;;;8.52;7.00;;;7.10;99.90;;;;;;5000817;28;20554;-73
2020/12/15 10:03:24;;;;;;;7.22;6.53;;;7.20;99.90;;;;;;4996518;28;20224;-72
2020/12/15 10:05:51;;;;;;;8.63;7.55;;;7.60;99.90;;;;;;5001508;28;20259;-72
2020/12/15 10:08:19;;;;;;;7.30;6.18;;;8.20;99.90;;;;;;4997838;28;20780;-73
2020/12/15 10:10:47;;;;;;;8.30;7.18;;;8.80;99.90;;;;;;5000830;28;20220;-71
2020/12/15 10:13:13;;;;;;;7.40;6.45;;;9.10;99.90;;;;;;4999480;28;20294;-72
2020/12/15 10:15:40;;;;;;;7.25;6.57;;;9.20;99.90;;;;;;4999883;28;20718;-72
2020/12/15 10:18:09;;;;;;;7.13;6.43;;;9.40;99.90;;;;;;4997383;28;21166;-72
2020/12/15 10:20:36;;;;;;;7.85;7.07;;;9.50;99.90;;;;;;5002550;28;20220;-72
2020/12/15 10:23:03;;;;;;;8.15;7.13;;;9.70;99.90;;;;;;4995888;28;20231;-73
2020/12/15 10:25:30;;;;;;;7.50;6.75;;;10.10;99.90;;;;;;4995123;28;20593;-71
2020/12/15 10:27:56;;;;;;;7.22;6.47;;;10.40;99.90;;;;;;4999222;28;20436;-72
2020/12/15 10:30:23;;;;;;;6.78;6.03;;;10.60;99.90;;;;;;4999089;28;20567;-72
2020/12/15 10:32:49;;;;;;;6.80;6.20;;;10.10;99.90;;;;;;5005465;28;20249;-71
2020/12/15 10:35:16;;;;;;;8.65;7.25;;;9.50;99.90;;;;;;5001451;28;20695;-72
2020/12/15 10:37:42;;;;;;;7.78;6.38;;;9.20;99.90;;;;;;4994207;28;20734;-72
2020/12/15 10:40:10;;;;;;;6.15;5.65;;;9.30;99.90;;;;;;5000160;28;20201;-72
2020/12/15 10:42:36;;;;;;;6.97;6.15;;;9.40;99.90;;;;;;4998232;28;20228;-72
2020/12/15 10:45:03;;;;;;;6.43;5.93;;;9.60;99.90;;;;;;4998485;28;20658;-73
2020/12/15 10:47:30;;;;;;;6.05;5.55;;;10.00;99.90;;;;;;4994834;28;20224;-72
2020/12/15 10:49:57;;;;;;;5.88;5.32;;;10.30;99.90;;;;;;5002956;28;20209;-72
2020/12/15 10:52:23;;;;;;;6.80;6.18;;;10.40;99.90;;;;;;5003806;28;20239;-72
2020/12/15 10:54:50;;;;;;;6.30;5.75;;;10.10;99.90;;;;;;5017730;28;20207;-71
2020/12/15 10:57:17;;;;;;;7.22;6.53;;;9.60;99.90;;;;;;5001959;28;20236;-72
2020/12/15 10:59:44;;;;;;;6.28;5.68;;;9.10;99.90;;;;;;4999228;28;20546;-72
2020/12/15 11:02:12;;;;;;;8.20;6.30;;;8.60;99.90;;;;;;4997112;28;20782;-71
2020/12/15 11:04:38;;;;;;;6.97;5.57;;;8.10;99.90;;;;;;4998020;28;20242;-71
2020/12/15 11:07:05;;;;;;;6.43;5.82;;;7.80;99.90;;;;;;5002134;28;20645;-72
2020/12/15 11:09:31;;;;;;;8.23;5.90;;;7.70;99.90;;;;;;4997469;28;20238;-72
2020/12/15 11:11:58;;;;;;;7.43;6.13;;;7.60;99.90;;;;;;4999121;28;20442;-71
2020/12/15 11:14:25;;;;;;;6.28;5.70;;;7.60;99.90;;;;;;5003286;28;20200;-72
2020/12/15 11:16:52;;;;;;;6.97;6.28;;;7.70;99.90;;;;;;4998528;28;20286;-71
2020/12/15 11:19:18;;;;;;;8.50;7.53;;;7.80;99.90;;;;;;5006855;28;20294;-72
2020/12/15 11:21:47;;;;;;;7.72;6.57;;;8.00;99.90;;;;;;5000973;28;20574;-71
2020/12/15 11:24:13;;;;;;;10.55;7.03;;;8.00;99.90;;;;;;4995891;28;20220;-72
2020/12/15 11:26:40;;;;;;;7.07;6.47;;;8.50;99.90;;;;;;5005472;28;20224;-72
2020/12/15 11:29:06;;;;;;;5.25;4.85;;;8.60;99.90;;;;;;4997845;28;20227;-71
2020/12/15 11:31:34;;;;;;;5.25;4.60;;;9.00;99.90;;;;;;5003219;28;20255;-72
2020/12/15 11:34:00;;;;;;;5.00;4.60;;;9.60;99.90;;;;;;4994828;28;20764;-72
2020/12/15 11:36:29;;;;;;;5.47;4.38;;;10.20;99.90;;;;;;4997382;28;20220;-71
2020/12/15 11:38:56;;;;;;;4.70;4.30;;;10.40;99.90;;;;;;4998073;28;20959;-72
2020/12/15 11:41:27;;;;;;;5.18;4.68;;;10.40;99.90;;;;;;4997971;28;20229;-72
2020/12/15 11:43:54;;;;;;;4.85;4.45;;;10.10;99.90;;;;;;4995220;28;20311;-71
2020/12/15 11:46:20;;;;;;;4.88;4.47;;;9.80;99.90;;;;;;4999891;28;20239;-72
2020/12/15 11:48:48;;;;;;;5.05;4.60;;;10.30;99.90;;;;;;5004395;28;20270;-72
2020/12/15 11:51:18;;;;;;;5.15;4.70;;;10.80;99.90;;;;;;5001314;28;20216;-71
2020/12/15 11:53:45;;;;;;;5.00;4.60;;;11.30;99.90;;;;;;4994115;28;20188;-72
2020/12/15 11:56:11;;;;;;;5.65;4.45;;;11.10;99.90;;;;;;4999094;28;20224;-72
2020/12/15 11:58:38;;;;;;;5.68;5.10;;;10.60;99.90;;;;;;5000547;28;20244;-72
2020/12/15 12:01:06;;;;;;;5.22;4.72;;;9.90;99.90;;;;;;5000252;28;20266;-72
2020/12/15 12:03:33;;;;;;;5.93;5.32;;;9.50;99.90;;;;;;4998411;28;20968;-72
2020/12/15 12:06:00;;;;;;;5.28;4.78;;;9.50;99.90;;;;;;4995830;28;20232;-72
2020/12/15 12:08:28;;;;;;;5.63;4.85;;;10.10;99.90;;;;;;5002999;28;20749;-71
2020/12/15 12:10:54;;;;;;;6.65;5.90;;;10.50;99.90;;;;;;4998137;28;20730;-72
2020/12/15 12:13:21;;;;;;;5.90;5.40;;;10.80;99.90;;;;;;4996337;28;20196;-73
2020/12/15 12:15:49;;;;;;;6.43;5.72;;;10.60;99.90;;;;;;4995532;28;20710;-72
2020/12/15 12:18:15;;;;;;;7.13;5.72;;;10.60;99.90;;;;;;4997696;28;20221;-72
2020/12/15 12:20:42;;;;;;;6.18;5.63;;;10.80;99.90;;;;;;4997733;28;20502;-73
2020/12/15 12:23:10;;;;;;;6.35;5.80;;;11.10;99.90;;;;;;4999669;28;20275;-72
2020/12/15 12:25:37;;;;;;;5.75;5.25;;;11.10;99.90;;;;;;4992841;28;20717;-72
2020/12/15 12:28:04;;;;;;;6.20;5.32;;;11.10;99.90;;;;;;4995214;28;20235;-72
2020/12/15 12:30:30;;;;;;;5.28;4.78;;;11.10;99.90;;;;;;5001763;28;20667;-73
2020/12/15 12:32:57;;;;;;;5.60;5.10;;;10.90;99.90;;;;;;4996558;28;20275;-73
2020/12/15 12:35:23;;;;;;;5.43;4.93;;;10.50;99.90;;;;;;4999135;28;20567;-73
2020/12/15 12:37:50;;;;;;;4.95;4.53;;;10.20;99.90;;;;;;4996128;28;20703;-72
2020/12/15 12:40:17;;;;;;;5.85;5.35;;;10.00;99.90;;;;;;4996317;28;20200;-72
2020/12/15 12:42:45;;;;;;;6.10;5.40;;;10.00;99.90;;;;;;4991903;28;20224;-72
2020/12/15 12:45:13;;;;;;;6.00;4.50;;;10.00;99.90;;;;;;4998924;28;20192;-72
2020/12/15 12:47:39;;;;;;;5.65;5.22;;;9.70;99.90;;;;;;4994072;28;20311;-72
2020/12/15 12:50:06;;;;;;;5.75;5.15;;;9.30;99.90;;;;;;4995284;28;20252;-73
2020/12/15 12:52:32;;;;;;;5.68;5.10;;;9.00;99.90;;;;;;4999583;28;20227;-72
2020/12/15 12:54:59;;;;;;;6.53;4.57;;;8.70;99.90;;;;;;4995827;28;20208;-72
2020/12/15 12:57:26;;;;;;;5.50;5.00;;;8.70;99.90;;;;;;4997048;28;20715;-72